sensor_id;sensor_type;location;lat;lon;timestamp;P1;durP1;ratioP1;P2;durP2;ratioP2
62258;SDS011;48241;48.824;10.102;2022-10-22T00:03:31;1.55;;;1.42;;
62258;SDS011;48241;48.824;10.102;2022-10-22T00:10:13;2.08;;;1.20;;
62258;SDS011;48241;48.824;10.102;2022-10-22T00:13:27;3.38;;;1.48;;
62258;SDS011;48241;48.824;10.102;2022-10-22T00:19:45;2.55;;;1.38;;
62258;SDS011;48241;48.824;10.102;2022-10-22T00:22:56;2.70;;;1.10;;
62258;SDS011;48241;48.824;10.102;2022-10-22T00:25:58;1.48;;;1.00;;
62258;SDS011;48241;48.824;10.102;2022-10-22T00:28:23;2.33;;;1.17;;
62258;SDS011;48241;48.824;10.102;2022-10-22T00:30:56;4.25;;;1.02;;
62258;SDS011;48241;48.824;10.102;2022-10-22T00:33:23;2.75;;;1.17;;
62258;SDS011;48241;48.824;10.102;2022-10-22T00:35:49;2.60;;;1.10;;
62258;SDS011;48241;48.824;10.102;2022-10-22T00:38:14;4.20;;;1.40;;
62258;SDS011;48241;48.824;10.102;2022-10-22T00:40:40;3.38;;;1.30;;
62258;SDS011;48241;48.824;10.102;2022-10-22T00:43:09;2.97;;;1.33;;
62258;SDS011;48241;48.824;10.102;2022-10-22T00:45:42;2.65;;;1.38;;
62258;SDS011;48241;48.824;10.102;2022-10-22T00:48:14;3.78;;;1.27;;
62258;SDS011;48241;48.824;10.102;2022-10-22T00:50:45;2.42;;;1.20;;
62258;SDS011;48241;48.824;10.102;2022-10-22T00:53:12;1.60;;;1.40;;
62258;SDS011;48241;48.824;10.102;2022-10-22T00:55:50;2.60;;;1.25;;
62258;SDS011;48241;48.824;10.102;2022-10-22T00:58:18;2.30;;;1.13;;
62258;SDS011;48241;48.824;10.102;2022-10-22T01:00:47;2.03;;;1.10;;
62258;SDS011;48241;48.824;10.102;2022-10-22T01:03:13;3.95;;;1.33;;
62258;SDS011;48241;48.824;10.102;2022-10-22T01:05:40;2.95;;;1.13;;
62258;SDS011;48241;48.824;10.102;2022-10-22T01:08:08;3.75;;;1.27;;
62258;SDS011;48241;48.824;10.102;2022-10-22T01:13:21;1.80;;;1.20;;
62258;SDS011;48241;48.824;10.102;2022-10-22T01:16:07;2.97;;;1.10;;
62258;SDS011;48241;48.824;10.102;2022-10-22T01:19:01;2.05;;;0.93;;
62258;SDS011;48241;48.824;10.102;2022-10-22T01:21:52;3.42;;;1.00;;
62258;SDS011;48241;48.824;10.102;2022-10-22T01:24:26;1.42;;;0.95;;
62258;SDS011;48241;48.824;10.102;2022-10-22T01:29:59;3.22;;;1.00;;
62258;SDS011;48241;48.824;10.102;2022-10-22T01:32:30;4.00;;;1.10;;
62258;SDS011;48241;48.824;10.102;2022-10-22T01:35:27;2.70;;;0.90;;
62258;SDS011;48241;48.824;10.102;2022-10-22T01:37:57;2.35;;;1.05;;
62258;SDS011;48241;48.824;10.102;2022-10-22T01:40:26;1.85;;;0.80;;
62258;SDS011;48241;48.824;10.102;2022-10-22T01:42:57;1.50;;;0.70;;
62258;SDS011;48241;48.824;10.102;2022-10-22T01:45:24;1.20;;;0.70;;
62258;SDS011;48241;48.824;10.102;2022-10-22T01:50:41;4.07;;;0.80;;
62258;SDS011;48241;48.824;10.102;2022-10-22T01:53:31;6.15;;;0.60;;
62258;SDS011;48241;48.824;10.102;2022-10-22T01:56:23;2.05;;;0.50;;
62258;SDS011;48241;48.824;10.102;2022-10-22T01:59:00;2.08;;;0.43;;
62258;SDS011;48241;48.824;10.102;2022-10-22T02:07:33;0.63;;;0.50;;
62258;SDS011;48241;48.824;10.102;2022-10-22T02:10:03;1.35;;;0.40;;
62258;SDS011;48241;48.824;10.102;2022-10-22T02:12:31;2.42;;;0.70;;
62258;SDS011;48241;48.824;10.102;2022-10-22T02:14:59;1.65;;;0.50;;
62258;SDS011;48241;48.824;10.102;2022-10-22T02:17:27;1.17;;;0.43;;
62258;SDS011;48241;48.824;10.102;2022-10-22T02:19:56;0.65;;;0.35;;
62258;SDS011;48241;48.824;10.102;2022-10-22T02:22:27;2.60;;;0.50;;
62258;SDS011;48241;48.824;10.102;2022-10-22T02:24:53;1.00;;;0.50;;
62258;SDS011;48241;48.824;10.102;2022-10-22T02:27:25;2.35;;;0.50;;
62258;SDS011;48241;48.824;10.102;2022-10-22T02:30:06;2.70;;;0.45;;
62258;SDS011;48241;48.824;10.102;2022-10-22T02:35:20;1.95;;;0.50;;
62258;SDS011;48241;48.824;10.102;2022-10-22T02:37:47;0.45;;;0.45;;
62258;SDS011;48241;48.824;10.102;2022-10-22T02:40:15;0.75;;;0.50;;
62258;SDS011;48241;48.824;10.102;2022-10-22T02:42:41;1.33;;;0.60;;
62258;SDS011;48241;48.824;10.102;2022-10-22T02:45:08;3.85;;;0.63;;
62258;SDS011;48241;48.824;10.102;2022-10-22T02:47:34;6.28;;;0.80;;
62258;SDS011;48241;48.824;10.102;2022-10-22T02:49:59;2.00;;;0.50;;
62258;SDS011;48241;48.824;10.102;2022-10-22T02:52:25;3.38;;;0.90;;
62258;SDS011;48241;48.824;10.102;2022-10-22T02:54:50;4.35;;;0.60;;
62258;SDS011;48241;48.824;10.102;2022-10-22T02:57:16;2.78;;;0.40;;
62258;SDS011;48241;48.824;10.102;2022-10-22T02:59:42;4.65;;;0.85;;
62258;SDS011;48241;48.824;10.102;2022-10-22T03:02:07;1.70;;;0.52;;
62258;SDS011;48241;48.824;10.102;2022-10-22T03:04:33;2.63;;;0.73;;
62258;SDS011;48241;48.824;10.102;2022-10-22T03:06:58;1.23;;;0.40;;
62258;SDS011;48241;48.824;10.102;2022-10-22T03:09:24;2.13;;;0.52;;
62258;SDS011;48241;48.824;10.102;2022-10-22T03:11:50;3.22;;;0.70;;
62258;SDS011;48241;48.824;10.102;2022-10-22T03:14:16;0.47;;;0.40;;
62258;SDS011;48241;48.824;10.102;2022-10-22T03:16:41;1.58;;;0.40;;
62258;SDS011;48241;48.824;10.102;2022-10-22T03:19:07;2.10;;;0.60;;
62258;SDS011;48241;48.824;10.102;2022-10-22T03:24:16;1.45;;;0.57;;
62258;SDS011;48241;48.824;10.102;2022-10-22T03:26:45;1.83;;;0.40;;
62258;SDS011;48241;48.824;10.102;2022-10-22T03:29:14;3.95;;;0.40;;
62258;SDS011;48241;48.824;10.102;2022-10-22T03:31:40;2.22;;;0.52;;
62258;SDS011;48241;48.824;10.102;2022-10-22T03:34:06;2.38;;;0.40;;
62258;SDS011;48241;48.824;10.102;2022-10-22T03:36:32;3.30;;;0.30;;
62258;SDS011;48241;48.824;10.102;2022-10-22T03:38:58;5.85;;;0.82;;
62258;SDS011;48241;48.824;10.102;2022-10-22T03:41:25;4.45;;;0.60;;
62258;SDS011;48241;48.824;10.102;2022-10-22T03:43:51;3.28;;;0.50;;
62258;SDS011;48241;48.824;10.102;2022-10-22T03:46:18;3.63;;;0.38;;
62258;SDS011;48241;48.824;10.102;2022-10-22T03:48:44;0.90;;;0.38;;
62258;SDS011;48241;48.824;10.102;2022-10-22T03:51:10;3.72;;;0.60;;
62258;SDS011;48241;48.824;10.102;2022-10-22T03:53:35;4.82;;;0.60;;
62258;SDS011;48241;48.824;10.102;2022-10-22T03:56:01;5.13;;;0.50;;
62258;SDS011;48241;48.824;10.102;2022-10-22T03:58:27;1.17;;;0.50;;
62258;SDS011;48241;48.824;10.102;2022-10-22T04:00:52;2.95;;;0.50;;
62258;SDS011;48241;48.824;10.102;2022-10-22T04:03:18;0.57;;;0.45;;
62258;SDS011;48241;48.824;10.102;2022-10-22T04:05:44;0.55;;;0.43;;
62258;SDS011;48241;48.824;10.102;2022-10-22T04:08:09;2.35;;;0.60;;
62258;SDS011;48241;48.824;10.102;2022-10-22T04:10:35;5.30;;;0.82;;
62258;SDS011;48241;48.824;10.102;2022-10-22T04:13:00;1.67;;;0.60;;
62258;SDS011;48241;48.824;10.102;2022-10-22T04:15:26;1.88;;;0.68;;
62258;SDS011;48241;48.824;10.102;2022-10-22T04:17:53;1.67;;;0.70;;
62258;SDS011;48241;48.824;10.102;2022-10-22T04:20:19;1.98;;;0.47;;
62258;SDS011;48241;48.824;10.102;2022-10-22T04:22:44;2.70;;;0.70;;
62258;SDS011;48241;48.824;10.102;2022-10-22T04:25:10;3.92;;;0.50;;
62258;SDS011;48241;48.824;10.102;2022-10-22T04:27:35;3.90;;;0.63;;
62258;SDS011;48241;48.824;10.102;2022-10-22T04:30:02;2.15;;;0.40;;
62258;SDS011;48241;48.824;10.102;2022-10-22T04:32:28;3.30;;;0.43;;
62258;SDS011;48241;48.824;10.102;2022-10-22T04:34:54;0.50;;;0.50;;
62258;SDS011;48241;48.824;10.102;2022-10-22T04:37:20;3.50;;;0.68;;
62258;SDS011;48241;48.824;10.102;2022-10-22T04:39:45;2.60;;;0.38;;
62258;SDS011;48241;48.824;10.102;2022-10-22T04:42:11;2.28;;;0.40;;
62258;SDS011;48241;48.824;10.102;2022-10-22T04:44:37;3.38;;;0.50;;
62258;SDS011;48241;48.824;10.102;2022-10-22T04:47:02;0.60;;;0.57;;
62258;SDS011;48241;48.824;10.102;2022-10-22T04:49:28;1.70;;;0.63;;
62258;SDS011;48241;48.824;10.102;2022-10-22T04:51:53;4.63;;;0.50;;
62258;SDS011;48241;48.824;10.102;2022-10-22T04:54:19;4.68;;;0.73;;
62258;SDS011;48241;48.824;10.102;2022-10-22T04:56:45;0.77;;;0.40;;
62258;SDS011;48241;48.824;10.102;2022-10-22T04:59:11;1.30;;;0.30;;
62258;SDS011;48241;48.824;10.102;2022-10-22T05:01:38;1.77;;;0.40;;
62258;SDS011;48241;48.824;10.102;2022-10-22T05:04:06;2.95;;;0.40;;
62258;SDS011;48241;48.824;10.102;2022-10-22T05:06:33;3.95;;;0.60;;
62258;SDS011;48241;48.824;10.102;2022-10-22T05:09:01;1.55;;;0.50;;
62258;SDS011;48241;48.824;10.102;2022-10-22T05:11:31;2.38;;;0.57;;
62258;SDS011;48241;48.824;10.102;2022-10-22T05:13:59;2.78;;;0.52;;
62258;SDS011;48241;48.824;10.102;2022-10-22T05:16:27;1.55;;;0.30;;
62258;SDS011;48241;48.824;10.102;2022-10-22T05:18:53;0.65;;;0.30;;
62258;SDS011;48241;48.824;10.102;2022-10-22T05:21:19;4.07;;;0.50;;
62258;SDS011;48241;48.824;10.102;2022-10-22T05:23:45;1.83;;;0.35;;
62258;SDS011;48241;48.824;10.102;2022-10-22T05:26:13;0.50;;;0.40;;
62258;SDS011;48241;48.824;10.102;2022-10-22T05:28:41;0.70;;;0.40;;
62258;SDS011;48241;48.824;10.102;2022-10-22T05:31:09;2.78;;;0.57;;
62258;SDS011;48241;48.824;10.102;2022-10-22T05:33:36;0.65;;;0.60;;
62258;SDS011;48241;48.824;10.102;2022-10-22T05:36:02;4.95;;;0.50;;
62258;SDS011;48241;48.824;10.102;2022-10-22T05:38:30;3.15;;;0.50;;
62258;SDS011;48241;48.824;10.102;2022-10-22T05:41:01;1.75;;;0.50;;
62258;SDS011;48241;48.824;10.102;2022-10-22T05:43:29;2.78;;;0.40;;
62258;SDS011;48241;48.824;10.102;2022-10-22T05:45:55;0.68;;;0.30;;
62258;SDS011;48241;48.824;10.102;2022-10-22T05:48:24;1.25;;;0.50;;
62258;SDS011;48241;48.824;10.102;2022-10-22T05:50:50;6.18;;;0.50;;
62258;SDS011;48241;48.824;10.102;2022-10-22T05:53:16;1.90;;;0.60;;
62258;SDS011;48241;48.824;10.102;2022-10-22T05:55:42;3.63;;;0.60;;
62258;SDS011;48241;48.824;10.102;2022-10-22T05:58:08;4.35;;;0.50;;
62258;SDS011;48241;48.824;10.102;2022-10-22T06:00:34;9.75;;;0.90;;
62258;SDS011;48241;48.824;10.102;2022-10-22T06:03:00;5.78;;;0.88;;
62258;SDS011;48241;48.824;10.102;2022-10-22T06:05:26;3.50;;;0.60;;
62258;SDS011;48241;48.824;10.102;2022-10-22T06:07:51;2.92;;;0.60;;
62258;SDS011;48241;48.824;10.102;2022-10-22T06:10:18;2.13;;;0.60;;
62258;SDS011;48241;48.824;10.102;2022-10-22T06:12:45;2.47;;;0.60;;
62258;SDS011;48241;48.824;10.102;2022-10-22T06:15:13;1.85;;;0.65;;
62258;SDS011;48241;48.824;10.102;2022-10-22T06:17:39;2.97;;;0.57;;
62258;SDS011;48241;48.824;10.102;2022-10-22T06:20:05;3.33;;;0.73;;
62258;SDS011;48241;48.824;10.102;2022-10-22T06:22:32;7.10;;;0.82;;
62258;SDS011;48241;48.824;10.102;2022-10-22T06:24:57;7.95;;;0.63;;
62258;SDS011;48241;48.824;10.102;2022-10-22T06:27:23;1.98;;;0.43;;
62258;SDS011;48241;48.824;10.102;2022-10-22T06:29:48;3.40;;;0.50;;
62258;SDS011;48241;48.824;10.102;2022-10-22T06:32:14;2.13;;;0.47;;
62258;SDS011;48241;48.824;10.102;2022-10-22T06:34:39;3.63;;;0.60;;
62258;SDS011;48241;48.824;10.102;2022-10-22T06:37:05;3.22;;;0.50;;
62258;SDS011;48241;48.824;10.102;2022-10-22T06:39:31;1.73;;;0.60;;
62258;SDS011;48241;48.824;10.102;2022-10-22T06:41:56;5.07;;;0.50;;
62258;SDS011;48241;48.824;10.102;2022-10-22T06:44:22;2.63;;;0.52;;
62258;SDS011;48241;48.824;10.102;2022-10-22T06:46:48;5.75;;;0.70;;
62258;SDS011;48241;48.824;10.102;2022-10-22T06:49:16;3.80;;;0.70;;
62258;SDS011;48241;48.824;10.102;2022-10-22T06:51:42;6.90;;;1.02;;
62258;SDS011;48241;48.824;10.102;2022-10-22T06:54:08;6.18;;;0.73;;
62258;SDS011;48241;48.824;10.102;2022-10-22T06:56:33;1.95;;;0.50;;
62258;SDS011;48241;48.824;10.102;2022-10-22T06:58:59;6.47;;;0.73;;
62258;SDS011;48241;48.824;10.102;2022-10-22T07:01:29;6.13;;;0.75;;
62258;SDS011;48241;48.824;10.102;2022-10-22T07:03:55;3.75;;;0.55;;
62258;SDS011;48241;48.824;10.102;2022-10-22T07:06:21;4.03;;;0.88;;
62258;SDS011;48241;48.824;10.102;2022-10-22T07:08:48;2.78;;;0.70;;
62258;SDS011;48241;48.824;10.102;2022-10-22T07:13:39;6.40;;;0.70;;
62258;SDS011;48241;48.824;10.102;2022-10-22T07:16:05;3.47;;;0.47;;
62258;SDS011;48241;48.824;10.102;2022-10-22T07:18:42;2.65;;;0.43;;
62258;SDS011;48241;48.824;10.102;2022-10-22T07:23:53;5.82;;;0.63;;
62258;SDS011;48241;48.824;10.102;2022-10-22T07:26:19;1.90;;;0.60;;
62258;SDS011;48241;48.824;10.102;2022-10-22T07:29:31;2.35;;;0.40;;
62258;SDS011;48241;48.824;10.102;2022-10-22T07:31:57;4.43;;;0.60;;
62258;SDS011;48241;48.824;10.102;2022-10-22T07:34:22;2.13;;;0.98;;
62258;SDS011;48241;48.824;10.102;2022-10-22T07:36:48;2.65;;;0.80;;
62258;SDS011;48241;48.824;10.102;2022-10-22T07:39:13;2.90;;;0.80;;
62258;SDS011;48241;48.824;10.102;2022-10-22T07:41:39;4.60;;;0.82;;
62258;SDS011;48241;48.824;10.102;2022-10-22T07:44:20;2.03;;;0.90;;
62258;SDS011;48241;48.824;10.102;2022-10-22T07:46:45;3.03;;;0.75;;
62258;SDS011;48241;48.824;10.102;2022-10-22T07:49:11;10.70;;;0.93;;
62258;SDS011;48241;48.824;10.102;2022-10-22T07:51:36;1.92;;;0.50;;
62258;SDS011;48241;48.824;10.102;2022-10-22T07:54:02;1.25;;;0.40;;
62258;SDS011;48241;48.824;10.102;2022-10-22T07:56:28;1.08;;;0.40;;
62258;SDS011;48241;48.824;10.102;2022-10-22T07:58:54;3.42;;;0.65;;
62258;SDS011;48241;48.824;10.102;2022-10-22T08:01:19;4.40;;;1.10;;
62258;SDS011;48241;48.824;10.102;2022-10-22T08:03:45;3.50;;;1.02;;
62258;SDS011;48241;48.824;10.102;2022-10-22T08:06:13;1.55;;;1.00;;
62258;SDS011;48241;48.824;10.102;2022-10-22T08:08:40;1.70;;;0.80;;
62258;SDS011;48241;48.824;10.102;2022-10-22T08:11:06;2.58;;;0.80;;
62258;SDS011;48241;48.824;10.102;2022-10-22T08:13:31;1.00;;;0.50;;
62258;SDS011;48241;48.824;10.102;2022-10-22T08:16:04;0.85;;;0.60;;
62258;SDS011;48241;48.824;10.102;2022-10-22T08:18:43;1.70;;;0.60;;
62258;SDS011;48241;48.824;10.102;2022-10-22T08:21:47;2.95;;;0.52;;
62258;SDS011;48241;48.824;10.102;2022-10-22T08:24:15;3.08;;;0.50;;
62258;SDS011;48241;48.824;10.102;2022-10-22T08:27:06;1.30;;;0.70;;
62258;SDS011;48241;48.824;10.102;2022-10-22T08:30:02;2.00;;;0.40;;
62258;SDS011;48241;48.824;10.102;2022-10-22T08:38:39;2.65;;;0.70;;
62258;SDS011;48241;48.824;10.102;2022-10-22T08:41:17;4.75;;;0.80;;
62258;SDS011;48241;48.824;10.102;2022-10-22T08:44:22;1.98;;;0.73;;
62258;SDS011;48241;48.824;10.102;2022-10-22T08:50:18;3.92;;;0.60;;
62258;SDS011;48241;48.824;10.102;2022-10-22T08:52:52;2.47;;;0.52;;
62258;SDS011;48241;48.824;10.102;2022-10-22T08:55:28;1.85;;;0.40;;
62258;SDS011;48241;48.824;10.102;2022-10-22T09:01:06;4.22;;;0.70;;
62258;SDS011;48241;48.824;10.102;2022-10-22T09:10:57;1.70;;;0.70;;
62258;SDS011;48241;48.824;10.102;2022-10-22T09:13:43;3.88;;;0.60;;
62258;SDS011;48241;48.824;10.102;2022-10-22T09:16:42;2.92;;;0.63;;
62258;SDS011;48241;48.824;10.102;2022-10-22T09:19:28;2.55;;;0.82;;
62258;SDS011;48241;48.824;10.102;2022-10-22T09:28:00;1.27;;;0.60;;
62258;SDS011;48241;48.824;10.102;2022-10-22T09:30:33;3.05;;;1.17;;
62258;SDS011;48241;48.824;10.102;2022-10-22T09:38:27;3.10;;;0.70;;
62258;SDS011;48241;48.824;10.102;2022-10-22T09:41:14;2.15;;;0.75;;
62258;SDS011;48241;48.824;10.102;2022-10-22T09:44:02;2.80;;;0.60;;
62258;SDS011;48241;48.824;10.102;2022-10-22T09:46:39;2.78;;;0.65;;
62258;SDS011;48241;48.824;10.102;2022-10-22T09:49:17;5.35;;;0.90;;
62258;SDS011;48241;48.824;10.102;2022-10-22T09:52:23;1.98;;;0.90;;
62258;SDS011;48241;48.824;10.102;2022-10-22T09:54:57;4.93;;;1.00;;
62258;SDS011;48241;48.824;10.102;2022-10-22T09:57:27;2.45;;;0.70;;
62258;SDS011;48241;48.824;10.102;2022-10-22T09:59:53;3.13;;;0.73;;
62258;SDS011;48241;48.824;10.102;2022-10-22T10:02:22;3.72;;;1.00;;
62258;SDS011;48241;48.824;10.102;2022-10-22T10:04:55;3.72;;;1.08;;
62258;SDS011;48241;48.824;10.102;2022-10-22T10:07:39;4.05;;;0.90;;
62258;SDS011;48241;48.824;10.102;2022-10-22T10:10:14;4.25;;;0.90;;
62258;SDS011;48241;48.824;10.102;2022-10-22T10:18:46;2.67;;;0.90;;
62258;SDS011;48241;48.824;10.102;2022-10-22T10:21:25;5.78;;;0.90;;
62258;SDS011;48241;48.824;10.102;2022-10-22T10:23:58;1.92;;;0.75;;
62258;SDS011;48241;48.824;10.102;2022-10-22T10:26:36;1.80;;;0.80;;
62258;SDS011;48241;48.824;10.102;2022-10-22T10:29:16;1.67;;;1.00;;
62258;SDS011;48241;48.824;10.102;2022-10-22T10:32:15;1.95;;;0.98;;
62258;SDS011;48241;48.824;10.102;2022-10-22T10:34:56;1.93;;;1.17;;
62258;SDS011;48241;48.824;10.102;2022-10-22T10:37:28;3.20;;;1.10;;
62258;SDS011;48241;48.824;10.102;2022-10-22T10:42:42;1.67;;;1.00;;
62258;SDS011;48241;48.824;10.102;2022-10-22T10:45:21;1.50;;;0.90;;
62258;SDS011;48241;48.824;10.102;2022-10-22T10:53:13;4.00;;;0.90;;
62258;SDS011;48241;48.824;10.102;2022-10-22T10:58:18;0.95;;;0.70;;
62258;SDS011;48241;48.824;10.102;2022-10-22T11:01:02;2.80;;;0.93;;
62258;SDS011;48241;48.824;10.102;2022-10-22T11:03:50;1.02;;;0.60;;
62258;SDS011;48241;48.824;10.102;2022-10-22T11:06:40;1.30;;;0.70;;
62258;SDS011;48241;48.824;10.102;2022-10-22T11:12:03;1.42;;;0.55;;
62258;SDS011;48241;48.824;10.102;2022-10-22T11:17:20;1.95;;;0.90;;
62258;SDS011;48241;48.824;10.102;2022-10-22T11:25:13;1.83;;;0.55;;
62258;SDS011;48241;48.824;10.102;2022-10-22T11:27:50;1.15;;;0.60;;
62258;SDS011;48241;48.824;10.102;2022-10-22T11:30:21;1.35;;;0.40;;
62258;SDS011;48241;48.824;10.102;2022-10-22T11:32:54;2.83;;;0.75;;
62258;SDS011;48241;48.824;10.102;2022-10-22T11:35:25;2.10;;;0.57;;
62258;SDS011;48241;48.824;10.102;2022-10-22T11:38:02;2.67;;;0.80;;
62258;SDS011;48241;48.824;10.102;2022-10-22T11:40:35;1.08;;;0.70;;
62258;SDS011;48241;48.824;10.102;2022-10-22T11:43:05;1.67;;;0.70;;
62258;SDS011;48241;48.824;10.102;2022-10-22T11:45:37;3.40;;;0.80;;
62258;SDS011;48241;48.824;10.102;2022-10-22T11:48:14;3.30;;;0.60;;
62258;SDS011;48241;48.824;10.102;2022-10-22T11:50:56;1.30;;;0.70;;
62258;SDS011;48241;48.824;10.102;2022-10-22T11:56:44;1.88;;;0.77;;
62258;SDS011;48241;48.824;10.102;2022-10-22T11:59:29;3.05;;;0.90;;
62258;SDS011;48241;48.824;10.102;2022-10-22T12:02:19;2.00;;;0.80;;
62258;SDS011;48241;48.824;10.102;2022-10-22T12:04:49;3.08;;;0.90;;
62258;SDS011;48241;48.824;10.102;2022-10-22T12:07:34;2.80;;;0.90;;
62258;SDS011;48241;48.824;10.102;2022-10-22T12:10:29;1.33;;;0.90;;
62258;SDS011;48241;48.824;10.102;2022-10-22T12:13:21;1.13;;;0.85;;
62258;SDS011;48241;48.824;10.102;2022-10-22T12:15:50;2.35;;;0.90;;
62258;SDS011;48241;48.824;10.102;2022-10-22T12:18:18;2.63;;;0.98;;
62258;SDS011;48241;48.824;10.102;2022-10-22T12:20:50;2.20;;;0.85;;
62258;SDS011;48241;48.824;10.102;2022-10-22T12:23:16;1.30;;;0.95;;
62258;SDS011;48241;48.824;10.102;2022-10-22T12:25:42;1.80;;;0.90;;
62258;SDS011;48241;48.824;10.102;2022-10-22T12:28:10;2.55;;;0.70;;
62258;SDS011;48241;48.824;10.102;2022-10-22T12:30:36;1.38;;;0.85;;
62258;SDS011;48241;48.824;10.102;2022-10-22T12:33:04;0.50;;;0.50;;
62258;SDS011;48241;48.824;10.102;2022-10-22T12:35:33;4.90;;;0.70;;
62258;SDS011;48241;48.824;10.102;2022-10-22T12:38:17;2.47;;;0.75;;
62258;SDS011;48241;48.824;10.102;2022-10-22T12:40:45;0.88;;;0.55;;
62258;SDS011;48241;48.824;10.102;2022-10-22T12:43:19;4.18;;;0.98;;
62258;SDS011;48241;48.824;10.102;2022-10-22T12:45:50;1.92;;;0.70;;
62258;SDS011;48241;48.824;10.102;2022-10-22T12:48:26;1.23;;;0.60;;
62258;SDS011;48241;48.824;10.102;2022-10-22T12:51:13;1.90;;;0.65;;
62258;SDS011;48241;48.824;10.102;2022-10-22T12:53:42;2.00;;;0.90;;
62258;SDS011;48241;48.824;10.102;2022-10-22T12:56:20;2.15;;;0.82;;
62258;SDS011;48241;48.824;10.102;2022-10-22T12:58:55;2.70;;;0.65;;
62258;SDS011;48241;48.824;10.102;2022-10-22T13:01:24;3.00;;;0.75;;
62258;SDS011;48241;48.824;10.102;2022-10-22T13:04:03;2.03;;;0.85;;
62258;SDS011;48241;48.824;10.102;2022-10-22T13:06:47;3.17;;;0.90;;
62258;SDS011;48241;48.824;10.102;2022-10-22T13:09:35;2.25;;;0.80;;
62258;SDS011;48241;48.824;10.102;2022-10-22T13:12:03;1.50;;;0.70;;
62258;SDS011;48241;48.824;10.102;2022-10-22T13:14:31;2.80;;;0.80;;
62258;SDS011;48241;48.824;10.102;2022-10-22T13:17:17;3.20;;;0.75;;
62258;SDS011;48241;48.824;10.102;2022-10-22T13:24:54;3.53;;;0.90;;
62258;SDS011;48241;48.824;10.102;2022-10-22T13:27:22;5.70;;;1.42;;
62258;SDS011;48241;48.824;10.102;2022-10-22T13:29:48;4.63;;;0.90;;
62258;SDS011;48241;48.824;10.102;2022-10-22T13:32:31;4.22;;;0.75;;
62258;SDS011;48241;48.824;10.102;2022-10-22T13:34:58;4.97;;;0.82;;
62258;SDS011;48241;48.824;10.102;2022-10-22T13:37:32;3.72;;;0.85;;
62258;SDS011;48241;48.824;10.102;2022-10-22T13:40:16;1.45;;;0.68;;
62258;SDS011;48241;48.824;10.102;2022-10-22T13:42:42;4.65;;;0.70;;
62258;SDS011;48241;48.824;10.102;2022-10-22T13:45:17;2.67;;;0.90;;
62258;SDS011;48241;48.824;10.102;2022-10-22T13:47:52;4.15;;;1.02;;
62258;SDS011;48241;48.824;10.102;2022-10-22T13:50:19;4.00;;;0.70;;
62258;SDS011;48241;48.824;10.102;2022-10-22T13:52:51;3.40;;;0.90;;
62258;SDS011;48241;48.824;10.102;2022-10-22T13:58:14;3.22;;;1.00;;
62258;SDS011;48241;48.824;10.102;2022-10-22T14:00:47;6.20;;;1.00;;
62258;SDS011;48241;48.824;10.102;2022-10-22T14:03:16;3.37;;;1.00;;
62258;SDS011;48241;48.824;10.102;2022-10-22T14:05:44;6.88;;;1.38;;
62258;SDS011;48241;48.824;10.102;2022-10-22T14:08:11;6.57;;;0.80;;
62258;SDS011;48241;48.824;10.102;2022-10-22T14:10:39;6.88;;;0.80;;
62258;SDS011;48241;48.824;10.102;2022-10-22T14:13:05;8.80;;;1.27;;
62258;SDS011;48241;48.824;10.102;2022-10-22T14:15:32;7.95;;;1.00;;
62258;SDS011;48241;48.824;10.102;2022-10-22T14:17:58;4.85;;;1.08;;
62258;SDS011;48241;48.824;10.102;2022-10-22T14:20:25;4.05;;;0.88;;
62258;SDS011;48241;48.824;10.102;2022-10-22T14:22:54;9.10;;;0.93;;
62258;SDS011;48241;48.824;10.102;2022-10-22T14:25:21;5.22;;;0.80;;
62258;SDS011;48241;48.824;10.102;2022-10-22T14:27:48;2.53;;;0.80;;
62258;SDS011;48241;48.824;10.102;2022-10-22T14:30:15;6.90;;;1.02;;
62258;SDS011;48241;48.824;10.102;2022-10-22T14:32:43;7.65;;;1.17;;
62258;SDS011;48241;48.824;10.102;2022-10-22T14:35:10;5.38;;;0.80;;
62258;SDS011;48241;48.824;10.102;2022-10-22T14:37:37;9.18;;;1.35;;
62258;SDS011;48241;48.824;10.102;2022-10-22T14:40:03;14.00;;;1.10;;
62258;SDS011;48241;48.824;10.102;2022-10-22T14:42:29;11.93;;;1.08;;
62258;SDS011;48241;48.824;10.102;2022-10-22T14:44:55;4.35;;;0.85;;
62258;SDS011;48241;48.824;10.102;2022-10-22T14:47:21;7.03;;;0.90;;
62258;SDS011;48241;48.824;10.102;2022-10-22T14:49:46;6.78;;;1.10;;
62258;SDS011;48241;48.824;10.102;2022-10-22T14:52:12;14.05;;;1.10;;
62258;SDS011;48241;48.824;10.102;2022-10-22T14:54:37;15.75;;;1.10;;
62258;SDS011;48241;48.824;10.102;2022-10-22T14:57:03;5.32;;;1.02;;
62258;SDS011;48241;48.824;10.102;2022-10-22T14:59:29;5.40;;;0.98;;
62258;SDS011;48241;48.824;10.102;2022-10-22T15:01:55;7.70;;;0.90;;
62258;SDS011;48241;48.824;10.102;2022-10-22T15:04:21;3.92;;;0.90;;
62258;SDS011;48241;48.824;10.102;2022-10-22T15:06:47;4.43;;;0.90;;
62258;SDS011;48241;48.824;10.102;2022-10-22T15:09:12;9.23;;;0.93;;
62258;SDS011;48241;48.824;10.102;2022-10-22T15:11:38;7.22;;;1.08;;
62258;SDS011;48241;48.824;10.102;2022-10-22T15:14:04;4.07;;;0.90;;
62258;SDS011;48241;48.824;10.102;2022-10-22T15:16:29;6.03;;;0.90;;
62258;SDS011;48241;48.824;10.102;2022-10-22T15:18:55;8.65;;;1.02;;
62258;SDS011;48241;48.824;10.102;2022-10-22T15:21:21;5.03;;;0.70;;
62258;SDS011;48241;48.824;10.102;2022-10-22T15:23:47;6.18;;;1.00;;
62258;SDS011;48241;48.824;10.102;2022-10-22T15:26:13;6.50;;;1.00;;
62258;SDS011;48241;48.824;10.102;2022-10-22T15:28:40;9.68;;;0.95;;
62258;SDS011;48241;48.824;10.102;2022-10-22T15:31:06;6.13;;;0.80;;
62258;SDS011;48241;48.824;10.102;2022-10-22T15:33:32;8.38;;;1.05;;
62258;SDS011;48241;48.824;10.102;2022-10-22T15:36:07;8.95;;;1.10;;
62258;SDS011;48241;48.824;10.102;2022-10-22T15:38:38;8.70;;;1.00;;
62258;SDS011;48241;48.824;10.102;2022-10-22T15:41:04;4.88;;;1.00;;
62258;SDS011;48241;48.824;10.102;2022-10-22T15:43:32;1.73;;;0.60;;
62258;SDS011;48241;48.824;10.102;2022-10-22T15:46:07;5.57;;;0.70;;
62258;SDS011;48241;48.824;10.102;2022-10-22T15:48:38;4.97;;;1.00;;
62258;SDS011;48241;48.824;10.102;2022-10-22T15:51:08;3.33;;;0.90;;
62258;SDS011;48241;48.824;10.102;2022-10-22T15:53:35;7.40;;;0.90;;
62258;SDS011;48241;48.824;10.102;2022-10-22T15:56:01;6.95;;;0.88;;
62258;SDS011;48241;48.824;10.102;2022-10-22T15:58:26;5.60;;;0.85;;
62258;SDS011;48241;48.824;10.102;2022-10-22T16:00:52;1.52;;;0.70;;
62258;SDS011;48241;48.824;10.102;2022-10-22T16:03:17;4.53;;;0.98;;
62258;SDS011;48241;48.824;10.102;2022-10-22T16:05:52;3.55;;;0.80;;
62258;SDS011;48241;48.824;10.102;2022-10-22T16:08:18;0.88;;;0.63;;
62258;SDS011;48241;48.824;10.102;2022-10-22T16:10:45;3.45;;;0.80;;
62258;SDS011;48241;48.824;10.102;2022-10-22T16:13:12;3.67;;;0.60;;
62258;SDS011;48241;48.824;10.102;2022-10-22T16:15:38;7.97;;;0.98;;
62258;SDS011;48241;48.824;10.102;2022-10-22T16:18:03;6.15;;;0.93;;
62258;SDS011;48241;48.824;10.102;2022-10-22T16:20:29;9.05;;;0.85;;
62258;SDS011;48241;48.824;10.102;2022-10-22T16:22:55;6.32;;;1.08;;
62258;SDS011;48241;48.824;10.102;2022-10-22T16:25:20;6.97;;;0.85;;
62258;SDS011;48241;48.824;10.102;2022-10-22T16:27:49;5.95;;;1.17;;
62258;SDS011;48241;48.824;10.102;2022-10-22T16:30:16;4.60;;;0.90;;
62258;SDS011;48241;48.824;10.102;2022-10-22T16:32:41;2.58;;;0.90;;
62258;SDS011;48241;48.824;10.102;2022-10-22T16:35:07;4.10;;;0.90;;
62258;SDS011;48241;48.824;10.102;2022-10-22T16:37:33;5.40;;;1.00;;
62258;SDS011;48241;48.824;10.102;2022-10-22T16:39:58;2.55;;;0.63;;